Weather at Hilton Head Airport

Public forecast

Using degrees Fahrenheit for public forecast. Weather courtesy of forecast.io.

Current aviation weather report (METAR) for Hilton Head Airport

2023/03/26 02:35 (retrieved 24 minutes ago)

KHXD 260235Z AUTO 21008KT 200V270 10SM CLR 21/19 A2998 RMK AO2

Closest aviation forecast (TAF) to Hilton Head Airport

Forecast is more than 12 hours old.

Closest forecast is Jacksonville Naval Air Station (Towers Field), 129.6 nm (240.1 km) SSW.

2023/03/25 13:47 Ammendment (retrieved 13 hours ago)

TAF AMD KNIP 2513/2607 21010KT 9999 FEW005 SCT020 SCT040 BKN250 QNH2995INS TEMPO 2513/2515 BKN010 BKN250 FM251500 21010G20KT 9999 SCT030 SCT045 BKN250 QNH2999INS FM251900 23015G23KT 9999 FEW035 SCT150 QNH2989INS BECMG 2601/2603 VRB06KT 9999 FEW040 QNH2996INS AUTOMATED SENSOR METWATCH 2507 TIL 2509 TX29/2521Z TN17/2507Z AMD 1330 FN00263